KBFI/BFI METAR and TAF weather

Enter ICAO airport designator
Station Type Date Time Source
KBFI METAR 2021/03/05 06:53 UTC NOAA

KBFI 050653Z 00000KT 10SM SCT060 OVC110 08/08 A3000 RMK AO2 PRESFR SLP159 T00780078 $


Station Type Date Time Source
KBFI Decoded METAR 2021/03/05 06:53 UTC NOAA

SEATTLE BOEING FIELD, WA, United States (KBFI) 47-33N 122-19W 4M
Mar 05, 2021 - 01:53 AM EST / 2021.03.05 0653 UTC
Wind: Calm:0
Visibility: 10 mile(s):0
Sky conditions: overcast
Temperature: 46.0 F (7.8 C)
Dew Point: 46.0 F (7.8 C)
Relative Humidity: 100%
Pressure (altimeter): 30 in. Hg (1015 hPa)
Pressure tendency: falling rapidly
ob: KBFI 050653Z 00000KT 10SM SCT060 OVC110 08/08 A3000 RMK AO2 PRESFR SLP159 T00780078
cycle: 7

Station Type Date Time Source
KBFI TAF 2021/03/05 06:22 UTC NOAA

TAF KBFI 050520Z 0506/0606 13008KT P6SM -RA OVC040
FM050900 VRB04KT 6SM -SHRA OVC030
FM051300 15005KT P6SM -RA OVC040
FM051900 16010KT 6SM -RA OVC030
FM060100 16007KT P6SM VCSH OVC030

Example: see airport list